sensor_id;sensor_type;location;lat;lon;timestamp;pressure;altitude;pressure_sealevel;temperature;humidity
28004;BME280;15330;51.234;6.754;2022-12-07T00:03:35;101279.94;;;5.05;100.00
28004;BME280;15330;51.234;6.754;2022-12-07T00:06:01;101279.28;;;4.90;100.00
28004;BME280;15330;51.234;6.754;2022-12-07T00:08:27;101278.00;;;4.96;100.00
28004;BME280;15330;51.234;6.754;2022-12-07T00:10:52;101276.03;;;4.87;100.00
28004;BME280;15330;51.234;6.754;2022-12-07T00:13:18;101276.19;;;4.96;100.00
28004;BME280;15330;51.234;6.754;2022-12-07T00:15:43;101274.97;;;5.00;100.00
28004;BME280;15330;51.234;6.754;2022-12-07T00:18:09;101273.06;;;5.02;100.00
28004;BME280;15330;51.234;6.754;2022-12-07T00:20:34;101277.09;;;5.08;100.00
28004;BME280;15330;51.234;6.754;2022-12-07T00:23:00;101272.59;;;4.97;100.00
28004;BME280;15330;51.234;6.754;2022-12-07T00:25:25;101280.69;;;5.07;100.00
28004;BME280;15330;51.234;6.754;2022-12-07T00:27:52;101282.97;;;5.11;100.00
28004;BME280;15330;51.234;6.754;2022-12-07T00:30:20;101279.59;;;4.98;100.00
28004;BME280;15330;51.234;6.754;2022-12-07T00:32:46;101280.53;;;4.97;100.00
28004;BME280;15330;51.234;6.754;2022-12-07T00:35:11;101280.91;;;5.04;100.00
28004;BME280;15330;51.234;6.754;2022-12-07T00:37:36;101276.69;;;5.01;100.00
28004;BME280;15330;51.234;6.754;2022-12-07T00:40:02;101274.75;;;5.03;100.00
28004;BME280;15330;51.234;6.754;2022-12-07T00:42:27;101272.09;;;5.03;100.00
28004;BME280;15330;51.234;6.754;2022-12-07T00:44:53;101273.44;;;4.98;100.00
28004;BME280;15330;51.234;6.754;2022-12-07T00:47:18;101274.44;;;5.08;100.00
28004;BME280;15330;51.234;6.754;2022-12-07T00:49:43;101262.31;;;4.93;100.00
28004;BME280;15330;51.234;6.754;2022-12-07T00:52:09;101268.34;;;4.95;100.00
28004;BME280;15330;51.234;6.754;2022-12-07T00:54:34;101265.56;;;4.85;100.00
28004;BME280;15330;51.234;6.754;2022-12-07T00:56:59;101257.09;;;4.80;100.00
28004;BME280;15330;51.234;6.754;2022-12-07T00:59:25;101259.56;;;4.94;100.00
28004;BME280;15330;51.234;6.754;2022-12-07T01:01:50;101263.34;;;4.79;100.00
28004;BME280;15330;51.234;6.754;2022-12-07T01:04:15;101252.03;;;4.88;100.00
28004;BME280;15330;51.234;6.754;2022-12-07T01:06:41;101251.84;;;5.02;100.00
28004;BME280;15330;51.234;6.754;2022-12-07T01:09:06;101250.16;;;5.01;100.00
28004;BME280;15330;51.234;6.754;2022-12-07T01:11:32;101249.56;;;4.98;100.00
28004;BME280;15330;51.234;6.754;2022-12-07T01:13:59;101258.91;;;4.79;100.00
28004;BME280;15330;51.234;6.754;2022-12-07T01:16:29;101258.91;;;4.79;100.00
28004;BME280;15330;51.234;6.754;2022-12-07T01:18:55;101260.63;;;4.92;100.00
28004;BME280;15330;51.234;6.754;2022-12-07T01:21:24;101260.25;;;4.85;100.00
28004;BME280;15330;51.234;6.754;2022-12-07T01:23:50;101260.28;;;4.96;100.00
28004;BME280;15330;51.234;6.754;2022-12-07T01:26:19;101261.25;;;4.95;100.00
28004;BME280;15330;51.234;6.754;2022-12-07T01:28:46;101266.31;;;4.98;100.00
28004;BME280;15330;51.234;6.754;2022-12-07T01:31:14;101258.13;;;5.01;100.00
28004;BME280;15330;51.234;6.754;2022-12-07T01:33:41;101255.25;;;5.04;100.00
28004;BME280;15330;51.234;6.754;2022-12-07T01:36:39;101254.09;;;4.85;100.00
28004;BME280;15330;51.234;6.754;2022-12-07T01:39:07;101246.53;;;4.91;100.00
28004;BME280;15330;51.234;6.754;2022-12-07T01:41:35;101248.59;;;4.88;100.00
28004;BME280;15330;51.234;6.754;2022-12-07T01:44:27;101259.78;;;4.91;100.00
28004;BME280;15330;51.234;6.754;2022-12-07T01:46:59;101255.69;;;4.87;100.00
28004;BME280;15330;51.234;6.754;2022-12-07T01:49:28;101266.13;;;4.77;100.00
28004;BME280;15330;51.234;6.754;2022-12-07T01:52:13;101251.16;;;4.65;100.00
28004;BME280;15330;51.234;6.754;2022-12-07T01:54:42;101247.97;;;4.84;100.00
28004;BME280;15330;51.234;6.754;2022-12-07T01:57:08;101251.09;;;4.89;100.00
28004;BME280;15330;51.234;6.754;2022-12-07T01:59:34;101248.66;;;4.75;100.00
28004;BME280;15330;51.234;6.754;2022-12-07T02:02:02;101256.25;;;4.79;100.00
28004;BME280;15330;51.234;6.754;2022-12-07T02:04:30;101247.22;;;4.82;100.00
28004;BME280;15330;51.234;6.754;2022-12-07T02:06:56;101250.78;;;4.70;100.00
28004;BME280;15330;51.234;6.754;2022-12-07T02:09:23;101244.34;;;4.85;100.00
28004;BME280;15330;51.234;6.754;2022-12-07T02:11:48;101242.63;;;4.73;100.00
28004;BME280;15330;51.234;6.754;2022-12-07T02:14:14;101247.34;;;4.80;100.00
28004;BME280;15330;51.234;6.754;2022-12-07T02:27:47;101239.63;;;4.77;100.00
28004;BME280;15330;51.234;6.754;2022-12-07T02:30:19;101241.78;;;4.72;100.00
28004;BME280;15330;51.234;6.754;2022-12-07T02:32:54;101245.22;;;4.62;100.00
28004;BME280;15330;51.234;6.754;2022-12-07T02:35:30;101245.41;;;4.83;100.00
28004;BME280;15330;51.234;6.754;2022-12-07T02:38:10;101247.19;;;4.71;100.00
28004;BME280;15330;51.234;6.754;2022-12-07T02:40:43;101246.13;;;4.73;100.00
28004;BME280;15330;51.234;6.754;2022-12-07T02:43:16;101243.63;;;4.83;100.00
28004;BME280;15330;51.234;6.754;2022-12-07T02:45:43;101244.31;;;4.74;100.00
28004;BME280;15330;51.234;6.754;2022-12-07T02:48:12;101247.88;;;4.62;100.00
28004;BME280;15330;51.234;6.754;2022-12-07T02:50:38;101240.03;;;4.60;100.00
28004;BME280;15330;51.234;6.754;2022-12-07T02:53:04;101252.38;;;4.72;100.00
28004;BME280;15330;51.234;6.754;2022-12-07T02:55:38;101247.19;;;4.71;100.00
28004;BME280;15330;51.234;6.754;2022-12-07T03:03:44;101239.44;;;4.57;100.00
28004;BME280;15330;51.234;6.754;2022-12-07T03:06:20;101239.97;;;4.49;100.00
28004;BME280;15330;51.234;6.754;2022-12-07T03:09:13;101241.16;;;4.69;100.00
28004;BME280;15330;51.234;6.754;2022-12-07T03:12:01;101245.22;;;4.62;100.00
28004;BME280;15330;51.234;6.754;2022-12-07T03:14:38;101245.75;;;4.67;100.00
28004;BME280;15330;51.234;6.754;2022-12-07T03:17:13;101247.28;;;4.69;100.00
28004;BME280;15330;51.234;6.754;2022-12-07T03:19:42;101238.34;;;4.59;100.00
28004;BME280;15330;51.234;6.754;2022-12-07T03:22:12;101242.31;;;4.54;100.00
28004;BME280;15330;51.234;6.754;2022-12-07T03:24:50;101243.53;;;4.61;100.00
28004;BME280;15330;51.234;6.754;2022-12-07T03:27:25;101244.22;;;4.52;100.00
28004;BME280;15330;51.234;6.754;2022-12-07T03:29:58;101246.66;;;4.55;100.00
28004;BME280;15330;51.234;6.754;2022-12-07T03:32:48;101246.88;;;4.52;100.00
28004;BME280;15330;51.234;6.754;2022-12-07T03:35:21;101243.00;;;4.45;100.00
28004;BME280;15330;51.234;6.754;2022-12-07T03:37:56;101244.91;;;4.42;100.00
28004;BME280;15330;51.234;6.754;2022-12-07T03:40:30;101239.72;;;4.41;100.00
28004;BME280;15330;51.234;6.754;2022-12-07T03:42:58;101248.19;;;4.46;100.00
28004;BME280;15330;51.234;6.754;2022-12-07T03:45:34;101242.16;;;4.44;100.00
28004;BME280;15330;51.234;6.754;2022-12-07T03:48:13;101238.69;;;4.55;100.00
28004;BME280;15330;51.234;6.754;2022-12-07T03:50:50;101239.19;;;4.60;100.00
28004;BME280;15330;51.234;6.754;2022-12-07T03:53:26;101237.06;;;4.65;100.00
28004;BME280;15330;51.234;6.754;2022-12-07T03:55:55;101241.50;;;4.64;100.00
28004;BME280;15330;51.234;6.754;2022-12-07T03:58:23;101236.22;;;4.40;100.00
28004;BME280;15330;51.234;6.754;2022-12-07T04:00:49;101238.19;;;4.50;100.00
28004;BME280;15330;51.234;6.754;2022-12-07T04:03:15;101236.78;;;4.57;100.00
28004;BME280;15330;51.234;6.754;2022-12-07T04:05:40;101241.47;;;4.53;100.00
28004;BME280;15330;51.234;6.754;2022-12-07T04:08:06;101245.84;;;4.41;100.00
28004;BME280;15330;51.234;6.754;2022-12-07T04:10:32;101225.72;;;4.39;100.00
28004;BME280;15330;51.234;6.754;2022-12-07T04:12:57;101241.72;;;4.37;100.00
28004;BME280;15330;51.234;6.754;2022-12-07T04:15:22;101239.59;;;4.42;100.00
28004;BME280;15330;51.234;6.754;2022-12-07T04:17:48;101240.50;;;4.30;100.00
28004;BME280;15330;51.234;6.754;2022-12-07T04:20:13;101241.66;;;4.26;100.00
28004;BME280;15330;51.234;6.754;2022-12-07T04:22:39;101239.50;;;4.44;100.00
28004;BME280;15330;51.234;6.754;2022-12-07T04:25:05;101241.72;;;4.37;100.00
28004;BME280;15330;51.234;6.754;2022-12-07T04:27:31;101240.41;;;4.32;100.00
28004;BME280;15330;51.234;6.754;2022-12-07T04:29:56;101237.22;;;4.51;100.00
28004;BME280;15330;51.234;6.754;2022-12-07T04:32:23;101228.31;;;4.52;100.00
28004;BME280;15330;51.234;6.754;2022-12-07T04:34:48;101228.50;;;4.37;100.00
28004;BME280;15330;51.234;6.754;2022-12-07T04:37:13;101225.28;;;4.45;100.00
28004;BME280;15330;51.234;6.754;2022-12-07T04:39:39;101228.16;;;4.42;100.00
28004;BME280;15330;51.234;6.754;2022-12-07T04:42:04;101231.13;;;4.37;100.00
28004;BME280;15330;51.234;6.754;2022-12-07T04:44:30;101231.44;;;4.22;100.00
28004;BME280;15330;51.234;6.754;2022-12-07T04:46:56;101229.34;;;4.38;100.00
28004;BME280;15330;51.234;6.754;2022-12-07T04:49:23;101227.53;;;4.38;100.00
28004;BME280;15330;51.234;6.754;2022-12-07T04:51:48;101227.63;;;4.37;100.00
28004;BME280;15330;51.234;6.754;2022-12-07T04:54:14;101228.75;;;4.34;100.00
28004;BME280;15330;51.234;6.754;2022-12-07T04:56:40;101218.91;;;4.48;100.00
28004;BME280;15330;51.234;6.754;2022-12-07T04:59:06;101208.41;;;4.35;100.00
28004;BME280;15330;51.234;6.754;2022-12-07T05:01:32;101214.53;;;4.35;100.00
28004;BME280;15330;51.234;6.754;2022-12-07T05:03:58;101217.78;;;4.39;100.00
28004;BME280;15330;51.234;6.754;2022-12-07T05:06:24;101217.19;;;4.35;100.00
28004;BME280;15330;51.234;6.754;2022-12-07T05:08:49;101217.44;;;4.20;100.00
28004;BME280;15330;51.234;6.754;2022-12-07T05:11:15;101222.91;;;4.29;100.00
28004;BME280;15330;51.234;6.754;2022-12-07T05:13:59;101224.84;;;4.03;100.00
28004;BME280;15330;51.234;6.754;2022-12-07T05:16:25;101235.13;;;4.67;100.00
28004;BME280;15330;51.234;6.754;2022-12-07T05:18:50;101227.50;;;4.86;100.00
28004;BME280;15330;51.234;6.754;2022-12-07T05:21:15;101227.44;;;4.75;100.00
28004;BME280;15330;51.234;6.754;2022-12-07T05:23:41;101230.31;;;5.07;100.00
28004;BME280;15330;51.234;6.754;2022-12-07T05:26:06;101235.59;;;4.96;100.00
28004;BME280;15330;51.234;6.754;2022-12-07T05:28:31;101225.84;;;5.07;99.00
28004;BME280;15330;51.234;6.754;2022-12-07T05:30:56;101235.34;;;5.10;99.71
28004;BME280;15330;51.234;6.754;2022-12-07T05:33:22;101241.03;;;5.05;98.59
28004;BME280;15330;51.234;6.754;2022-12-07T05:35:47;101227.56;;;4.73;100.00
28004;BME280;15330;51.234;6.754;2022-12-07T05:38:13;101235.59;;;4.61;100.00
28004;BME280;15330;51.234;6.754;2022-12-07T05:40:38;101224.03;;;4.62;100.00
28004;BME280;15330;51.234;6.754;2022-12-07T05:43:03;101223.81;;;4.41;100.00
28004;BME280;15330;51.234;6.754;2022-12-07T05:45:29;101227.38;;;4.53;100.00
28004;BME280;15330;51.234;6.754;2022-12-07T05:47:54;101216.03;;;4.51;100.00
28004;BME280;15330;51.234;6.754;2022-12-07T05:50:19;101219.59;;;4.38;100.00
28004;BME280;15330;51.234;6.754;2022-12-07T05:52:45;101216.09;;;4.38;100.00
28004;BME280;15330;51.234;6.754;2022-12-07T05:55:10;101225.16;;;4.47;100.00
28004;BME280;15330;51.234;6.754;2022-12-07T05:57:35;101215.81;;;4.54;100.00
28004;BME280;15330;51.234;6.754;2022-12-07T06:00:02;101220.16;;;4.55;100.00
28004;BME280;15330;51.234;6.754;2022-12-07T06:02:28;101222.34;;;4.61;100.00
28004;BME280;15330;51.234;6.754;2022-12-07T06:04:53;101226.47;;;4.65;100.00
28004;BME280;15330;51.234;6.754;2022-12-07T06:07:18;101225.72;;;4.63;100.00
28004;BME280;15330;51.234;6.754;2022-12-07T06:09:44;101221.38;;;4.62;100.00
28004;BME280;15330;51.234;6.754;2022-12-07T06:12:11;101214.75;;;4.67;100.00
28004;BME280;15330;51.234;6.754;2022-12-07T06:14:54;101208.50;;;4.68;100.00
28004;BME280;15330;51.234;6.754;2022-12-07T06:17:20;101217.41;;;4.67;100.00
28004;BME280;15330;51.234;6.754;2022-12-07T06:19:45;101212.09;;;4.56;100.00
28004;BME280;15330;51.234;6.754;2022-12-07T06:22:11;101230.50;;;4.58;100.00
28004;BME280;15330;51.234;6.754;2022-12-07T06:24:37;101222.91;;;4.53;100.00
28004;BME280;15330;51.234;6.754;2022-12-07T06:27:03;101235.09;;;4.56;100.00
28004;BME280;15330;51.234;6.754;2022-12-07T06:29:29;101234.56;;;4.51;100.00
28004;BME280;15330;51.234;6.754;2022-12-07T06:31:55;101228.22;;;4.53;100.00
28004;BME280;15330;51.234;6.754;2022-12-07T06:34:22;101231.75;;;4.41;100.00
28004;BME280;15330;51.234;6.754;2022-12-07T06:36:48;101232.88;;;4.50;100.00
28004;BME280;15330;51.234;6.754;2022-12-07T06:39:17;101237.22;;;4.51;100.00
28004;BME280;15330;51.234;6.754;2022-12-07T06:41:43;101237.13;;;4.52;100.00
28004;BME280;15330;51.234;6.754;2022-12-07T06:44:08;101224.44;;;4.45;100.00
28004;BME280;15330;51.234;6.754;2022-12-07T06:46:34;101231.25;;;4.60;100.00
28004;BME280;15330;51.234;6.754;2022-12-07T06:49:01;101232.72;;;4.64;100.00
28004;BME280;15330;51.234;6.754;2022-12-07T06:51:26;101228.63;;;5.17;100.00
28004;BME280;15330;51.234;6.754;2022-12-07T06:53:52;101224.78;;;5.54;99.34
28004;BME280;15330;51.234;6.754;2022-12-07T06:56:17;101228.16;;;5.23;99.14
28004;BME280;15330;51.234;6.754;2022-12-07T06:58:42;101231.88;;;5.21;99.04
28004;BME280;15330;51.234;6.754;2022-12-07T07:01:12;101231.97;;;6.31;100.00
28004;BME280;15330;51.234;6.754;2022-12-07T07:03:38;101233.09;;;6.81;97.92
28004;BME280;15330;51.234;6.754;2022-12-07T07:06:04;101232.25;;;6.48;95.97
28004;BME280;15330;51.234;6.754;2022-12-07T07:08:30;101228.00;;;6.57;96.25
28004;BME280;15330;51.234;6.754;2022-12-07T07:10:56;101228.41;;;5.98;95.48
28004;BME280;15330;51.234;6.754;2022-12-07T07:13:21;101238.09;;;5.88;97.40
28004;BME280;15330;51.234;6.754;2022-12-07T07:15:46;101232.88;;;6.09;94.99
28004;BME280;15330;51.234;6.754;2022-12-07T07:18:12;101225.41;;;5.47;96.13
28004;BME280;15330;51.234;6.754;2022-12-07T07:20:38;101229.47;;;5.40;97.68
28004;BME280;15330;51.234;6.754;2022-12-07T07:23:03;101229.63;;;5.27;98.06
28004;BME280;15330;51.234;6.754;2022-12-07T07:25:29;101235.44;;;4.86;99.23
28004;BME280;15330;51.234;6.754;2022-12-07T07:27:54;101238.75;;;4.66;99.98
28004;BME280;15330;51.234;6.754;2022-12-07T07:30:20;101232.50;;;4.78;99.33
28004;BME280;15330;51.234;6.754;2022-12-07T07:32:45;101241.44;;;4.88;99.80
28004;BME280;15330;51.234;6.754;2022-12-07T07:35:10;101238.13;;;4.97;99.47
28004;BME280;15330;51.234;6.754;2022-12-07T07:37:36;101245.09;;;4.87;99.78
28004;BME280;15330;51.234;6.754;2022-12-07T07:40:01;101241.19;;;4.80;99.26
28004;BME280;15330;51.234;6.754;2022-12-07T07:42:27;101237.34;;;4.84;99.62
28004;BME280;15330;51.234;6.754;2022-12-07T07:44:53;101243.63;;;4.83;98.95
28004;BME280;15330;51.234;6.754;2022-12-07T07:47:18;101242.19;;;4.55;99.95
28004;BME280;15330;51.234;6.754;2022-12-07T07:49:43;101238.19;;;4.50;99.91
28004;BME280;15330;51.234;6.754;2022-12-07T07:52:09;101233.72;;;4.50;99.68
28004;BME280;15330;51.234;6.754;2022-12-07T07:54:35;101247.44;;;4.44;99.89
28004;BME280;15330;51.234;6.754;2022-12-07T07:57:00;101248.88;;;4.48;100.00
28004;BME280;15330;51.234;6.754;2022-12-07T07:59:25;101247.34;;;4.46;100.00
28004;BME280;15330;51.234;6.754;2022-12-07T08:01:51;101243.09;;;4.43;99.29
28004;BME280;15330;51.234;6.754;2022-12-07T08:04:16;101253.84;;;4.53;99.79
28004;BME280;15330;51.234;6.754;2022-12-07T08:06:41;101254.91;;;4.50;99.81
28004;BME280;15330;51.234;6.754;2022-12-07T08:09:07;101252.09;;;4.64;99.11
28004;BME280;15330;51.234;6.754;2022-12-07T08:11:34;101252.53;;;4.58;99.50
28004;BME280;15330;51.234;6.754;2022-12-07T08:13:59;101265.34;;;4.64;99.04
28004;BME280;15330;51.234;6.754;2022-12-07T08:16:24;101262.13;;;4.72;98.87
28004;BME280;15330;51.234;6.754;2022-12-07T08:18:50;101272.19;;;4.91;98.35
28004;BME280;15330;51.234;6.754;2022-12-07T08:21:15;101265.38;;;5.10;97.81
28004;BME280;15330;51.234;6.754;2022-12-07T08:23:41;101268.41;;;5.17;97.85
28004;BME280;15330;51.234;6.754;2022-12-07T08:26:09;101269.13;;;5.30;96.80
28004;BME280;15330;51.234;6.754;2022-12-07T08:28:36;101272.13;;;5.14;96.74
28004;BME280;15330;51.234;6.754;2022-12-07T08:31:06;101268.13;;;4.98;97.02
28004;BME280;15330;51.234;6.754;2022-12-07T08:33:33;101269.97;;;5.08;97.36
28004;BME280;15330;51.234;6.754;2022-12-07T08:36:03;101274.00;;;4.90;97.85
28004;BME280;15330;51.234;6.754;2022-12-07T08:38:29;101270.69;;;5.10;97.67
28004;BME280;15330;51.234;6.754;2022-12-07T08:40:56;101275.28;;;5.20;96.99
28004;BME280;15330;51.234;6.754;2022-12-07T08:43:22;101270.78;;;5.09;96.92
28004;BME280;15330;51.234;6.754;2022-12-07T08:45:49;101262.50;;;5.13;96.92
28004;BME280;15330;51.234;6.754;2022-12-07T08:48:17;101257.13;;;5.48;96.59
28004;BME280;15330;51.234;6.754;2022-12-07T08:50:47;101266.75;;;5.61;95.36
28004;BME280;15330;51.234;6.754;2022-12-07T08:53:13;101267.34;;;5.42;95.43
28004;BME280;15330;51.234;6.754;2022-12-07T08:55:38;101264.94;;;5.61;95.61
28004;BME280;15330;51.234;6.754;2022-12-07T08:58:04;101264.34;;;5.46;95.87
28004;BME280;15330;51.234;6.754;2022-12-07T09:00:29;101268.84;;;5.57;95.31
28004;BME280;15330;51.234;6.754;2022-12-07T09:02:54;101262.31;;;5.39;95.48
28004;BME280;15330;51.234;6.754;2022-12-07T09:05:20;101260.88;;;5.79;93.77
28004;BME280;15330;51.234;6.754;2022-12-07T09:07:48;101248.69;;;5.77;93.79
28004;BME280;15330;51.234;6.754;2022-12-07T09:10:14;101256.25;;;6.90;88.73
28004;BME280;15330;51.234;6.754;2022-12-07T09:12:39;101252.78;;;8.21;85.29
28004;BME280;15330;51.234;6.754;2022-12-07T09:15:05;101255.28;;;8.03;83.35
28004;BME280;15330;51.234;6.754;2022-12-07T09:17:34;101255.53;;;7.29;86.57
28004;BME280;15330;51.234;6.754;2022-12-07T09:20:01;101262.63;;;7.50;85.22
28004;BME280;15330;51.234;6.754;2022-12-07T09:22:30;101265.09;;;7.62;86.47
28004;BME280;15330;51.234;6.754;2022-12-07T09:24:57;101252.44;;;7.55;85.66
28004;BME280;15330;51.234;6.754;2022-12-07T09:27:22;101258.84;;;7.01;86.74
28004;BME280;15330;51.234;6.754;2022-12-07T09:29:47;101251.34;;;7.57;86.59
28004;BME280;15330;51.234;6.754;2022-12-07T09:32:15;101255.97;;;7.95;85.57
28004;BME280;15330;51.234;6.754;2022-12-07T09:34:41;101256.63;;;7.06;86.69
28004;BME280;15330;51.234;6.754;2022-12-07T09:37:06;101267.13;;;6.55;89.00
28004;BME280;15330;51.234;6.754;2022-12-07T09:39:32;101268.22;;;6.09;90.92
28004;BME280;15330;51.234;6.754;2022-12-07T09:41:58;101270.25;;;6.28;89.39
28004;BME280;15330;51.234;6.754;2022-12-07T09:44:25;101265.19;;;6.14;90.71
28004;BME280;15330;51.234;6.754;2022-12-07T09:46:52;101268.25;;;5.98;91.28
28004;BME280;15330;51.234;6.754;2022-12-07T09:49:20;101269.53;;;6.15;90.93
28004;BME280;15330;51.234;6.754;2022-12-07T09:51:46;101264.31;;;6.24;90.01
28004;BME280;15330;51.234;6.754;2022-12-07T09:54:14;101265.53;;;6.32;90.29
28004;BME280;15330;51.234;6.754;2022-12-07T09:56:40;101260.38;;;6.62;89.32
28004;BME280;15330;51.234;6.754;2022-12-07T09:59:05;101261.13;;;6.85;88.33
28004;BME280;15330;51.234;6.754;2022-12-07T10:01:32;101258.47;;;6.53;88.93
28004;BME280;15330;51.234;6.754;2022-12-07T10:04:12;101257.94;;;6.59;89.43
28004;BME280;15330;51.234;6.754;2022-12-07T10:06:39;101253.59;;;6.15;89.80
28004;BME280;15330;51.234;6.754;2022-12-07T10:09:13;101253.16;;;6.10;90.79
28004;BME280;15330;51.234;6.754;2022-12-07T10:12:00;101247.09;;;6.19;89.85
28004;BME280;15330;51.234;6.754;2022-12-07T10:14:28;101242.03;;;6.05;91.08
28004;BME280;15330;51.234;6.754;2022-12-07T10:16:54;101238.16;;;6.09;91.24
28004;BME280;15330;51.234;6.754;2022-12-07T10:19:24;101246.44;;;6.26;90.91
28004;BME280;15330;51.234;6.754;2022-12-07T10:22:15;101244.44;;;6.19;90.29
28004;BME280;15330;51.234;6.754;2022-12-07T10:24:43;101242.72;;;6.29;90.74
28004;BME280;15330;51.234;6.754;2022-12-07T10:27:22;101231.06;;;6.09;91.19
28004;BME280;15330;51.234;6.754;2022-12-07T10:29:52;101235.53;;;5.98;91.67
28004;BME280;15330;51.234;6.754;2022-12-07T10:34:44;101235.97;;;6.14;90.78
28004;BME280;15330;51.234;6.754;2022-12-07T10:42:26;101229.63;;;6.37;90.37
28004;BME280;15330;51.234;6.754;2022-12-07T10:45:14;101234.59;;;6.42;91.03
28004;BME280;15330;51.234;6.754;2022-12-07T10:48:06;101223.38;;;6.27;91.32
28004;BME280;15330;51.234;6.754;2022-12-07T10:53:35;101221.66;;;6.69;88.92
28004;BME280;15330;51.234;6.754;2022-12-07T11:01:40;101203.31;;;8.95;81.49
28004;BME280;15330;51.234;6.754;2022-12-07T11:09:38;101193.72;;;7.96;81.74
28004;BME280;15330;51.234;6.754;2022-12-07T11:12:10;101194.31;;;8.09;81.29
28004;BME280;15330;51.234;6.754;2022-12-07T11:17:18;101187.91;;;8.60;77.58
28004;BME280;15330;51.234;6.754;2022-12-07T11:22:53;101183.78;;;11.02;70.18
28004;BME280;15330;51.234;6.754;2022-12-07T11:30:59;101174.31;;;10.29;70.71
28004;BME280;15330;51.234;6.754;2022-12-07T11:36:44;101172.06;;;10.60;71.27
28004;BME280;15330;51.234;6.754;2022-12-07T11:39:33;101163.44;;;10.13;71.96
28004;BME280;15330;51.234;6.754;2022-12-07T11:42:25;101165.84;;;10.34;70.82
28004;BME280;15330;51.234;6.754;2022-12-07T11:45:10;101155.69;;;9.92;71.93
28004;BME280;15330;51.234;6.754;2022-12-07T11:47:45;101157.09;;;9.69;73.82
28004;BME280;15330;51.234;6.754;2022-12-07T11:53:03;101148.28;;;9.58;74.48
28004;BME280;15330;51.234;6.754;2022-12-07T11:55:46;101151.47;;;9.07;76.51
28004;BME280;15330;51.234;6.754;2022-12-07T11:58:33;101151.81;;;9.32;76.07
28004;BME280;15330;51.234;6.754;2022-12-07T12:06:40;101142.94;;;7.79;81.01
28004;BME280;15330;51.234;6.754;2022-12-07T12:22:20;101140.75;;;8.32;79.31
28004;BME280;15330;51.234;6.754;2022-12-07T12:24:51;101133.31;;;8.55;79.01
28004;BME280;15330;51.234;6.754;2022-12-07T12:27:24;101137.22;;;8.02;78.49
28004;BME280;15330;51.234;6.754;2022-12-07T12:29:56;101131.50;;;8.17;78.29
28004;BME280;15330;51.234;6.754;2022-12-07T12:32:43;101124.19;;;8.67;78.45
28004;BME280;15330;51.234;6.754;2022-12-07T12:37:48;101108.69;;;9.27;76.55
28004;BME280;15330;51.234;6.754;2022-12-07T12:42:49;101112.44;;;8.50;78.00
28004;BME280;15330;51.234;6.754;2022-12-07T12:45:31;101114.38;;;8.29;78.83
28004;BME280;15330;51.234;6.754;2022-12-07T12:48:01;101112.13;;;7.86;79.17
28004;BME280;15330;51.234;6.754;2022-12-07T12:50:30;101109.72;;;7.73;79.91
28004;BME280;15330;51.234;6.754;2022-12-07T12:53:25;101104.66;;;7.70;81.06
28004;BME280;15330;51.234;6.754;2022-12-07T12:58:47;101104.94;;;7.57;81.88
28004;BME280;15330;51.234;6.754;2022-12-07T13:04:01;101098.97;;;7.34;82.25
28004;BME280;15330;51.234;6.754;2022-12-07T13:08:57;101103.31;;;7.35;82.97
28004;BME280;15330;51.234;6.754;2022-12-07T13:11:44;101099.53;;;7.48;82.21
28004;BME280;15330;51.234;6.754;2022-12-07T13:19:57;101096.44;;;7.33;82.55
28004;BME280;15330;51.234;6.754;2022-12-07T13:27:51;101089.41;;;7.22;82.26
28004;BME280;15330;51.234;6.754;2022-12-07T13:30:20;101085.31;;;7.18;83.70
28004;BME280;15330;51.234;6.754;2022-12-07T13:32:59;101078.66;;;7.33;82.90
28004;BME280;15330;51.234;6.754;2022-12-07T13:35:36;101082.91;;;7.06;83.36
28004;BME280;15330;51.234;6.754;2022-12-07T13:38:05;101076.38;;;6.89;83.31
28004;BME280;15330;51.234;6.754;2022-12-07T13:40:34;101080.69;;;7.11;83.41
28004;BME280;15330;51.234;6.754;2022-12-07T13:43:04;101069.38;;;7.28;83.05
28004;BME280;15330;51.234;6.754;2022-12-07T13:45:37;101072.50;;;7.33;82.76
28004;BME280;15330;51.234;6.754;2022-12-07T13:48:38;101072.22;;;7.26;84.16
28004;BME280;15330;51.234;6.754;2022-12-07T13:51:19;101069.81;;;7.23;83.59
28004;BME280;15330;51.234;6.754;2022-12-07T13:54:11;101061.28;;;7.29;82.76
28004;BME280;15330;51.234;6.754;2022-12-07T13:56:35;101055.75;;;7.12;82.21
28004;BME280;15330;51.234;6.754;2022-12-07T13:59:02;101057.00;;;7.08;81.92
28004;BME280;15330;51.234;6.754;2022-12-07T14:01:30;101053.38;;;7.18;81.56
28004;BME280;15330;51.234;6.754;2022-12-07T14:04:15;101049.44;;;7.03;81.79
28004;BME280;15330;51.234;6.754;2022-12-07T14:06:51;101049.59;;;7.11;81.38
28004;BME280;15330;51.234;6.754;2022-12-07T14:09:19;101048.78;;;6.80;81.56
28004;BME280;15330;51.234;6.754;2022-12-07T14:11:47;101048.09;;;6.88;82.10
28004;BME280;15330;51.234;6.754;2022-12-07T14:14:16;101042.03;;;6.76;82.32
28004;BME280;15330;51.234;6.754;2022-12-07T14:16:43;101039.88;;;6.91;82.25
28004;BME280;15330;51.234;6.754;2022-12-07T14:28:10;101039.03;;;6.90;83.80
28004;BME280;15330;51.234;6.754;2022-12-07T14:30:49;101039.56;;;6.84;84.64
28004;BME280;15330;51.234;6.754;2022-12-07T14:33:14;101031.00;;;6.81;85.12
28004;BME280;15330;51.234;6.754;2022-12-07T14:35:40;101024.47;;;6.85;85.45
28004;BME280;15330;51.234;6.754;2022-12-07T14:38:05;101018.81;;;6.78;84.76
28004;BME280;15330;51.234;6.754;2022-12-07T14:40:31;101025.44;;;6.84;84.68
28004;BME280;15330;51.234;6.754;2022-12-07T14:43:01;101021.84;;;6.64;85.25
28004;BME280;15330;51.234;6.754;2022-12-07T14:45:26;101014.81;;;6.53;85.04
28004;BME280;15330;51.234;6.754;2022-12-07T14:47:52;101013.19;;;6.41;85.98
28004;BME280;15330;51.234;6.754;2022-12-07T14:50:19;101012.28;;;6.52;86.32
28004;BME280;15330;51.234;6.754;2022-12-07T14:52:49;101013.69;;;6.56;86.11
28004;BME280;15330;51.234;6.754;2022-12-07T14:55:26;101005.91;;;6.64;85.52